createdAt,value
2018-05-27T00:00:47.074Z,99.90
2018-05-27T00:03:20.749Z,99.90
2018-05-27T00:05:54.344Z,99.90
2018-05-27T00:08:28.066Z,99.90
2018-05-27T00:11:01.617Z,99.90
2018-05-27T00:13:35.192Z,99.90
2018-05-27T00:16:08.710Z,99.90
2018-05-27T00:18:43.010Z,99.90
2018-05-27T00:21:16.608Z,99.90
2018-05-27T00:23:50.187Z,99.90
2018-05-27T00:26:24.612Z,99.90
2018-05-27T00:28:58.181Z,99.90
2018-05-27T00:31:31.825Z,99.90
2018-05-27T00:34:05.517Z,99.90
2018-05-27T00:36:39.074Z,99.90
2018-05-27T00:39:13.418Z,99.90
2018-05-27T00:41:47.067Z,99.90
2018-05-27T00:44:20.648Z,99.90
2018-05-27T00:46:54.214Z,99.90
2018-05-27T00:49:28.508Z,99.90
2018-05-27T00:52:02.230Z,99.90
2018-05-27T00:54:36.659Z,99.90
2018-05-27T00:57:10.375Z,99.90
2018-05-27T00:59:44.169Z,99.90
2018-05-27T01:02:17.641Z,99.90
2018-05-27T01:04:51.196Z,99.90
2018-05-27T01:07:24.775Z,99.90
2018-05-27T01:09:58.390Z,99.90
2018-05-27T01:12:32.023Z,99.90
2018-05-27T01:15:05.550Z,99.90
2018-05-27T01:17:39.091Z,99.90
2018-05-27T01:20:13.390Z,99.90
2018-05-27T01:22:47.831Z,99.90
2018-05-27T01:25:21.414Z,99.90
2018-05-27T01:27:54.978Z,99.90
2018-05-27T01:30:28.624Z,99.90
2018-05-27T01:33:02.219Z,99.90
2018-05-27T01:35:35.814Z,99.90
2018-05-27T01:38:09.351Z,99.90
2018-05-27T01:40:43.678Z,99.90
2018-05-27T01:43:18.054Z,99.90
2018-05-27T01:45:51.767Z,99.90
2018-05-27T01:48:25.290Z,99.90
2018-05-27T01:50:58.779Z,99.90
2018-05-27T01:53:32.348Z,99.90
2018-05-27T01:56:05.945Z,99.90
2018-05-27T01:58:39.477Z,99.90
2018-05-27T02:01:13.169Z,99.90
2018-05-27T02:03:46.743Z,99.90
2018-05-27T02:06:20.479Z,99.90
2018-05-27T02:08:54.215Z,99.90
2018-05-27T02:11:28.685Z,99.90
2018-05-27T02:14:03.033Z,99.90
2018-05-27T02:16:36.670Z,99.90
2018-05-27T02:19:11.042Z,99.90
2018-05-27T02:21:44.645Z,99.90
2018-05-27T02:24:18.223Z,99.90
2018-05-27T02:26:51.813Z,99.90
2018-05-27T02:29:25.434Z,99.90
2018-05-27T02:31:58.934Z,99.90
2018-05-27T02:34:32.457Z,99.90
2018-05-27T02:37:05.995Z,99.90
2018-05-27T02:39:39.534Z,99.90
2018-05-27T02:42:13.838Z,99.90
2018-05-27T02:44:47.570Z,99.90
2018-05-27T02:47:21.117Z,99.90
2018-05-27T02:49:55.474Z,99.90
2018-05-27T02:52:29.151Z,99.90
2018-05-27T02:55:02.697Z,99.90
2018-05-27T02:57:36.232Z,99.90
2018-05-27T03:00:10.488Z,99.90
2018-05-27T03:02:44.088Z,99.90
2018-05-27T03:05:18.421Z,99.90
2018-05-27T03:07:52.165Z,99.90
2018-05-27T03:10:25.798Z,99.90
2018-05-27T03:12:59.351Z,99.90
2018-05-27T03:15:33.051Z,99.90
2018-05-27T03:18:06.609Z,99.90
2018-05-27T03:20:40.160Z,99.90
2018-05-27T03:23:13.811Z,99.90
2018-05-27T03:25:47.324Z,99.90
2018-05-27T03:28:20.911Z,99.90
2018-05-27T03:30:54.433Z,99.90
2018-05-27T03:33:27.970Z,99.90
2018-05-27T03:36:01.632Z,99.90
2018-05-27T03:38:35.227Z,99.90
2018-05-27T03:41:09.535Z,99.90
2018-05-27T03:43:43.246Z,99.90
2018-05-27T03:46:17.766Z,99.90
2018-05-27T03:48:51.402Z,99.90
2018-05-27T03:51:24.942Z,99.90
2018-05-27T03:53:58.428Z,99.90
2018-05-27T03:56:31.973Z,99.90
2018-05-27T03:59:05.484Z,99.90
2018-05-27T04:01:39.031Z,99.90
2018-05-27T04:04:24.398Z,99.90
2018-05-27T04:07:09.904Z,99.90
2018-05-27T04:09:44.240Z,99.90
2018-05-27T04:12:18.582Z,99.90
2018-05-27T04:14:52.119Z,99.90
2018-05-27T04:17:25.730Z,99.90
2018-05-27T04:19:59.225Z,99.90
2018-05-27T04:22:32.771Z,99.90
2018-05-27T04:25:06.339Z,99.90
2018-05-27T04:27:39.959Z,99.90
2018-05-27T04:30:14.365Z,99.90
2018-05-27T04:32:48.868Z,99.90
2018-05-27T04:35:23.225Z,99.90
2018-05-27T04:37:56.954Z,99.90
2018-05-27T04:40:30.613Z,99.90
2018-05-27T04:43:04.501Z,99.90
2018-05-27T04:45:38.227Z,99.90
2018-05-27T04:48:12.835Z,99.90
2018-05-27T04:50:46.558Z,99.90
2018-05-27T04:53:20.077Z,99.90
2018-05-27T04:55:53.646Z,99.90
2018-05-27T04:58:27.240Z,99.90
2018-05-27T05:01:00.819Z,99.90
2018-05-27T05:03:34.360Z,99.90
2018-05-27T05:06:07.889Z,99.90
2018-05-27T05:08:41.447Z,99.90
2018-05-27T05:11:15.762Z,99.90
2018-05-27T05:13:49.426Z,99.90
2018-05-27T05:16:22.969Z,99.90
2018-05-27T05:18:57.292Z,99.90
2018-05-27T05:21:30.953Z,99.90
2018-05-27T05:24:04.502Z,99.90
2018-05-27T05:26:38.076Z,99.90
2018-05-27T05:29:11.589Z,99.90
2018-05-27T05:31:45.177Z,99.90
2018-05-27T05:34:19.491Z,99.90
2018-05-27T05:36:53.087Z,99.90
2018-05-27T05:39:26.632Z,99.90
2018-05-27T05:42:00.171Z,99.90
2018-05-27T05:44:33.720Z,99.90
2018-05-27T05:47:08.020Z,99.90
2018-05-27T05:49:41.614Z,99.90
2018-05-27T05:52:15.308Z,99.90
2018-05-27T05:54:49.193Z,99.90
2018-05-27T05:57:23.784Z,99.90
2018-05-27T05:59:57.385Z,99.90
2018-05-27T06:02:31.747Z,99.90
2018-05-27T06:05:05.482Z,99.90
2018-05-27T06:07:39.293Z,99.90
2018-05-27T06:10:13.004Z,99.90
2018-05-27T06:12:46.568Z,99.90
2018-05-27T06:15:20.163Z,99.90
2018-05-27T06:17:53.691Z,99.90
2018-05-27T06:20:28.045Z,99.90
2018-05-27T06:23:02.413Z,99.90
2018-05-27T06:25:36.202Z,99.90
2018-05-27T06:28:09.843Z,99.90
2018-05-27T06:30:44.167Z,99.90
2018-05-27T06:33:17.847Z,99.90
2018-05-27T06:35:51.486Z,99.90
2018-05-27T06:38:25.019Z,99.90
2018-05-27T06:40:58.524Z,99.90
2018-05-27T06:43:32.094Z,99.90
2018-05-27T06:46:05.578Z,99.90
2018-05-27T06:48:39.106Z,99.90
2018-05-27T06:51:13.494Z,99.90
2018-05-27T06:53:46.984Z,99.90
2018-05-27T06:56:20.543Z,99.90
2018-05-27T06:58:54.057Z,99.90
2018-05-27T07:01:27.628Z,99.90
2018-05-27T07:04:01.239Z,99.90
2018-05-27T07:06:35.594Z,99.90
2018-05-27T07:09:10.036Z,99.90
2018-05-27T07:11:44.609Z,99.90
2018-05-27T07:14:18.338Z,99.90
2018-05-27T07:16:51.903Z,99.90
2018-05-27T07:19:25.398Z,99.90
2018-05-27T07:21:58.937Z,99.90
2018-05-27T07:24:32.502Z,99.90
2018-05-27T07:27:06.031Z,99.90
2018-05-27T07:29:39.537Z,99.90
2018-05-27T07:32:13.035Z,99.90
2018-05-27T07:34:46.603Z,99.90
2018-05-27T07:37:20.288Z,99.90
2018-05-27T07:39:53.962Z,99.90
2018-05-27T07:42:28.457Z,99.90
2018-05-27T07:45:02.175Z,99.90
2018-05-27T07:47:35.823Z,99.90
2018-05-27T07:50:09.559Z,99.90
2018-05-27T07:52:43.866Z,99.90
2018-05-27T07:55:17.492Z,99.90
2018-05-27T07:57:51.074Z,99.90
2018-05-27T08:00:24.604Z,99.60
2018-05-27T08:02:58.984Z,99.40
2018-05-27T08:05:32.509Z,99.40
2018-05-27T08:08:06.151Z,98.70
2018-05-27T08:10:39.926Z,98.30
2018-05-27T08:13:13.678Z,97.70
2018-05-27T08:15:47.203Z,97.30
2018-05-27T08:18:20.715Z,97.80
2018-05-27T08:20:54.287Z,97.90
2018-05-27T08:23:27.870Z,98.20
2018-05-27T08:26:02.339Z,97.50
2018-05-27T08:28:35.907Z,97.50
2018-05-27T08:31:09.505Z,97.00
2018-05-27T08:33:43.113Z,96.70
2018-05-27T08:36:16.795Z,96.60
2018-05-27T08:38:50.456Z,95.30
2018-05-27T08:41:24.058Z,96.10
2018-05-27T08:43:57.642Z,95.80
2018-05-27T08:46:31.280Z,95.40
2018-05-27T08:49:04.894Z,93.80
2018-05-27T08:51:39.224Z,93.30
2018-05-27T08:54:13.555Z,92.20
2018-05-27T08:56:47.973Z,94.40
2018-05-27T08:59:21.724Z,94.00
2018-05-27T09:01:55.397Z,92.90
2018-05-27T09:04:28.965Z,93.20
2018-05-27T09:07:02.489Z,92.00
2018-05-27T09:09:36.291Z,94.40
2018-05-27T09:12:09.810Z,93.90
2018-05-27T09:14:43.472Z,92.40
2018-05-27T09:17:17.082Z,92.40
2018-05-27T09:19:50.651Z,90.30
2018-05-27T09:22:24.316Z,90.30
2018-05-27T09:24:57.876Z,89.90
2018-05-27T09:27:31.631Z,87.20
2018-05-27T09:30:05.316Z,90.50
2018-05-27T09:32:38.887Z,90.10
2018-05-27T09:35:12.378Z,90.00
2018-05-27T09:37:46.837Z,87.90
2018-05-27T09:40:20.322Z,87.90
2018-05-27T09:42:54.623Z,85.00
2018-05-27T09:45:28.338Z,85.00
2018-05-27T09:48:01.975Z,84.80
2018-05-27T09:50:36.451Z,80.10
2018-05-27T09:53:10.172Z,80.10
2018-05-27T09:55:43.897Z,81.30
2018-05-27T09:58:18.412Z,79.90
2018-05-27T10:00:52.910Z,77.30
2018-05-27T10:03:27.212Z,80.70
2018-05-27T10:06:00.887Z,80.60
2018-05-27T10:08:34.427Z,77.00
2018-05-27T10:11:08.150Z,79.50
2018-05-27T10:13:41.925Z,76.60
2018-05-27T10:16:16.356Z,75.50
2018-05-27T10:18:50.079Z,75.40
2018-05-27T10:21:23.623Z,75.40
2018-05-27T10:23:57.315Z,77.80
2018-05-27T10:26:30.944Z,75.50
2018-05-27T10:29:04.703Z,73.90
2018-05-27T10:31:38.549Z,73.60
2018-05-27T10:34:12.291Z,76.10
2018-05-27T10:36:46.694Z,76.40
2018-05-27T10:39:20.307Z,76.30
2018-05-27T10:41:53.831Z,74.60
2018-05-27T10:44:27.341Z,74.60
2018-05-27T10:47:00.998Z,73.00
2018-05-27T10:49:34.569Z,73.10
2018-05-27T10:52:08.190Z,71.70
2018-05-27T10:54:41.730Z,67.70
2018-05-27T10:57:15.431Z,66.80
2018-05-27T10:59:49.023Z,69.70
2018-05-27T11:02:23.431Z,65.00
2018-05-27T11:04:56.987Z,64.90
2018-05-27T11:07:30.759Z,67.20
2018-05-27T11:10:04.386Z,64.00
2018-05-27T11:12:38.033Z,63.40
2018-05-27T11:15:11.590Z,65.30
2018-05-27T11:17:45.134Z,69.00
2018-05-27T11:20:18.905Z,64.90
2018-05-27T11:22:53.355Z,63.70
2018-05-27T11:25:26.909Z,63.70
2018-05-27T11:28:00.708Z,63.40
2018-05-27T11:30:35.597Z,63.10
2018-05-27T11:33:09.925Z,63.50
2018-05-27T11:35:43.459Z,63.50
2018-05-27T11:38:17.114Z,62.00
2018-05-27T11:40:50.655Z,60.70
2018-05-27T11:43:25.132Z,58.80
2018-05-27T11:45:58.730Z,58.90
2018-05-27T11:48:32.310Z,58.20
2018-05-27T11:51:05.894Z,59.90
2018-05-27T11:53:39.517Z,61.00
2018-05-27T11:56:13.090Z,56.10
2018-05-27T11:58:46.788Z,56.70
2018-05-27T12:01:20.469Z,58.20
2018-05-27T12:03:54.758Z,62.10
2018-05-27T12:06:29.154Z,61.60
2018-05-27T12:09:03.535Z,63.00
2018-05-27T12:11:37.248Z,63.10
2018-05-27T12:14:10.793Z,64.50
2018-05-27T12:16:44.613Z,64.00
2018-05-27T12:19:18.391Z,62.30
2018-05-27T12:21:51.929Z,65.60
2018-05-27T12:24:25.440Z,65.20
2018-05-27T12:26:59.009Z,67.00
2018-05-27T12:29:32.709Z,68.00
2018-05-27T12:32:06.234Z,66.30
2018-05-27T12:34:39.830Z,65.70
2018-05-27T12:37:13.443Z,65.90
2018-05-27T12:39:47.166Z,63.40
2018-05-27T12:42:20.746Z,58.40
2018-05-27T12:44:54.339Z,60.80
2018-05-27T12:47:27.821Z,58.10
2018-05-27T12:50:01.478Z,55.40
2018-05-27T12:52:35.119Z,57.50
2018-05-27T12:55:08.804Z,59.40
2018-05-27T12:57:42.491Z,57.60
2018-05-27T13:00:16.084Z,58.10
2018-05-27T13:02:50.630Z,64.90
2018-05-27T13:05:24.176Z,64.80
2018-05-27T13:07:57.725Z,57.60
2018-05-27T13:10:31.351Z,58.90
2018-05-27T13:13:04.941Z,58.00
2018-05-27T13:15:38.478Z,56.90
2018-05-27T13:18:12.017Z,56.40
2018-05-27T13:20:46.257Z,57.90
2018-05-27T13:23:20.028Z,58.60
2018-05-27T13:25:53.554Z,57.10
2018-05-27T13:28:28.075Z,58.60
2018-05-27T13:31:02.421Z,59.90
2018-05-27T13:33:35.974Z,59.90
2018-05-27T13:36:09.598Z,58.40
2018-05-27T13:38:43.259Z,57.40
2018-05-27T13:41:17.737Z,58.50
2018-05-27T13:43:52.222Z,59.10
2018-05-27T13:46:25.871Z,59.10
2018-05-27T13:48:59.541Z,59.50
2018-05-27T13:51:33.250Z,60.00
2018-05-27T13:54:06.900Z,59.50
2018-05-27T13:56:41.283Z,60.30
2018-05-27T13:59:14.903Z,60.30
2018-05-27T14:01:48.462Z,59.70
2018-05-27T14:04:22.043Z,59.70
2018-05-27T14:06:55.765Z,60.50
2018-05-27T14:09:29.460Z,60.10
2018-05-27T14:12:03.099Z,61.40
2018-05-27T14:14:36.667Z,61.80
2018-05-27T14:17:10.251Z,61.70
2018-05-27T14:19:44.685Z,63.20
2018-05-27T14:22:18.623Z,63.00
2018-05-27T14:24:52.316Z,63.10
2018-05-27T14:27:26.130Z,62.90
2018-05-27T14:29:59.808Z,63.10
2018-05-27T14:32:33.515Z,62.30
2018-05-27T14:35:07.101Z,62.80
2018-05-27T14:37:40.834Z,63.90
2018-05-27T14:40:15.218Z,70.10
2018-05-27T14:42:48.801Z,70.00
2018-05-27T14:45:22.335Z,70.70
2018-05-27T14:47:55.960Z,73.90
2018-05-27T14:50:29.471Z,73.70
2018-05-27T14:53:03.052Z,75.20
2018-05-27T14:55:37.570Z,71.00
2018-05-27T14:58:11.065Z,70.90
2018-05-27T15:00:46.191Z,69.60
2018-05-27T15:03:19.909Z,69.70
2018-05-27T15:05:53.628Z,72.60
2018-05-27T15:08:27.175Z,71.40
2018-05-27T15:11:01.599Z,72.70
2018-05-27T15:13:35.390Z,72.60
2018-05-27T15:16:08.948Z,72.20
2018-05-27T15:18:42.590Z,75.50
2018-05-27T15:21:16.109Z,74.70
2018-05-27T15:23:49.737Z,74.20
2018-05-27T15:26:24.233Z,74.30
2018-05-27T15:28:57.849Z,74.10
2018-05-27T15:31:31.402Z,73.50
2018-05-27T15:34:05.161Z,77.10
2018-05-27T15:36:38.866Z,78.20
2018-05-27T15:39:13.285Z,80.90
2018-05-27T15:41:47.052Z,80.90
2018-05-27T15:44:20.811Z,79.50
2018-05-27T15:46:54.487Z,79.20
2018-05-27T15:49:28.079Z,80.50
2018-05-27T15:52:01.830Z,78.60
2018-05-27T15:54:35.380Z,78.80
2018-05-27T15:57:09.003Z,77.80
2018-05-27T15:59:42.688Z,79.00
2018-05-27T16:02:16.309Z,79.80
2018-05-27T16:04:49.797Z,78.80
2018-05-27T16:07:23.514Z,77.20
2018-05-27T16:09:57.085Z,76.00
2018-05-27T16:12:30.812Z,76.60
2018-05-27T16:15:04.344Z,78.00
2018-05-27T16:17:37.910Z,78.30
2018-05-27T16:20:11.407Z,76.80
2018-05-27T16:22:45.822Z,76.30
2018-05-27T16:25:19.372Z,76.20
2018-05-27T16:27:52.938Z,75.10
2018-05-27T16:30:26.583Z,73.00
2018-05-27T16:33:00.382Z,76.10
2018-05-27T16:35:34.186Z,74.50
2018-05-27T16:38:07.775Z,74.40
2018-05-27T16:40:42.616Z,70.90
2018-05-27T16:43:16.310Z,70.80
2018-05-27T16:45:50.010Z,69.50
2018-05-27T16:48:23.540Z,68.80
2018-05-27T16:50:57.207Z,68.90
2018-05-27T16:53:31.616Z,64.80
2018-05-27T16:56:06.093Z,62.30
2018-05-27T16:58:39.645Z,62.10
2018-05-27T17:01:13.229Z,60.40
2018-05-27T17:03:46.733Z,60.60
2018-05-27T17:06:21.243Z,61.10
2018-05-27T17:08:55.549Z,59.20
2018-05-27T17:11:29.148Z,59.20
2018-05-27T17:14:02.773Z,64.70
2018-05-27T17:16:36.262Z,67.10
2018-05-27T17:19:09.918Z,68.80
2018-05-27T17:21:43.577Z,69.10
2018-05-27T17:24:17.119Z,68.80
2018-05-27T17:26:50.842Z,68.40
2018-05-27T17:29:24.352Z,68.60
2018-05-27T17:31:58.042Z,70.60
2018-05-27T17:34:31.756Z,69.80
2018-05-27T17:37:05.396Z,71.00
2018-05-27T17:39:39.204Z,72.30
2018-05-27T17:42:12.688Z,71.10
2018-05-27T17:44:48.278Z,66.80
2018-05-27T17:47:21.971Z,66.80
2018-05-27T17:49:56.530Z,65.30
2018-05-27T17:52:30.855Z,67.30
2018-05-27T17:55:04.452Z,67.30
2018-05-27T17:57:38.063Z,67.10
2018-05-27T18:00:11.592Z,69.20
2018-05-27T18:02:45.933Z,70.60
2018-05-27T18:05:19.668Z,70.50
2018-05-27T18:07:54.177Z,74.60
2018-05-27T18:10:27.729Z,74.50
2018-05-27T18:13:01.248Z,75.90
2018-05-27T18:15:34.860Z,76.50
2018-05-27T18:18:08.397Z,77.30
2018-05-27T18:20:42.021Z,76.50
2018-05-27T18:23:15.719Z,75.80
2018-05-27T18:25:49.310Z,75.80
2018-05-27T18:28:23.076Z,75.70
2018-05-27T18:30:56.766Z,76.00
2018-05-27T18:33:30.378Z,76.70
2018-05-27T18:36:04.664Z,76.10
2018-05-27T18:38:38.243Z,76.10
2018-05-27T18:41:11.802Z,77.00
2018-05-27T18:43:46.157Z,78.00
2018-05-27T18:46:19.868Z,77.80
2018-05-27T18:48:54.378Z,79.30
2018-05-27T18:51:28.063Z,79.20
2018-05-27T18:54:01.788Z,79.50
2018-05-27T18:56:36.294Z,80.60
2018-05-27T18:59:09.968Z,79.60
2018-05-27T19:01:43.693Z,80.40
2018-05-27T19:04:17.299Z,81.60
2018-05-27T19:06:50.808Z,81.90
2018-05-27T19:09:24.496Z,81.80
2018-05-27T19:11:58.136Z,82.80
2018-05-27T19:14:32.540Z,83.90
2018-05-27T19:17:06.145Z,83.80
2018-05-27T19:19:40.434Z,84.90
2018-05-27T19:22:14.137Z,84.80
2018-05-27T19:24:47.814Z,86.50
2018-05-27T19:27:21.334Z,87.30
2018-05-27T19:29:54.931Z,87.50
2018-05-27T19:32:28.536Z,87.80
2018-05-27T19:35:02.056Z,88.10
2018-05-27T19:37:35.648Z,88.70
2018-05-27T19:40:09.283Z,89.00
2018-05-27T19:42:43.117Z,89.00
2018-05-27T19:45:17.010Z,90.40
2018-05-27T19:47:50.652Z,91.20
2018-05-27T19:50:24.168Z,91.60
2018-05-27T19:52:57.687Z,91.80
2018-05-27T19:55:31.248Z,93.20
2018-05-27T19:58:04.854Z,93.60
2018-05-27T20:00:38.508Z,95.30
2018-05-27T20:03:12.052Z,99.50
2018-05-27T20:05:45.565Z,99.90
2018-05-27T20:08:19.165Z,99.90
2018-05-27T20:10:52.767Z,99.90
2018-05-27T20:13:27.085Z,99.90
2018-05-27T20:16:01.492Z,99.90
2018-05-27T20:18:35.289Z,99.90
2018-05-27T20:21:08.816Z,99.90
2018-05-27T20:23:43.142Z,99.90
2018-05-27T20:26:16.647Z,99.90
2018-05-27T20:28:50.244Z,99.90
2018-05-27T20:31:23.775Z,99.90
2018-05-27T20:33:57.346Z,99.90
2018-05-27T20:36:30.907Z,99.90
2018-05-27T20:39:05.396Z,99.90
2018-05-27T20:41:39.024Z,99.90
2018-05-27T20:44:12.545Z,99.90
2018-05-27T20:46:46.115Z,99.90
2018-05-27T20:49:19.641Z,99.90
2018-05-27T20:51:53.138Z,99.90
2018-05-27T20:54:27.450Z,99.90
2018-05-27T20:57:01.778Z,99.90
2018-05-27T20:59:35.548Z,99.90
2018-05-27T21:02:09.218Z,99.90
2018-05-27T21:04:42.782Z,99.90
2018-05-27T21:07:16.344Z,99.90
2018-05-27T21:09:49.899Z,99.90
2018-05-27T21:12:23.495Z,99.90
2018-05-27T21:14:57.071Z,99.90
2018-05-27T21:17:30.692Z,99.90
2018-05-27T21:20:04.983Z,99.90
2018-05-27T21:22:39.637Z,99.90
2018-05-27T21:25:14.032Z,99.90
2018-05-27T21:27:47.784Z,99.90
2018-05-27T21:30:22.065Z,99.90
2018-05-27T21:32:56.366Z,99.90
2018-05-27T21:35:30.100Z,99.90
2018-05-27T21:38:03.594Z,99.90
2018-05-27T21:40:37.169Z,99.90
2018-05-27T21:43:10.804Z,99.90
2018-05-27T21:45:44.380Z,99.90
2018-05-27T21:48:17.972Z,99.90
2018-05-27T21:50:51.602Z,99.90
2018-05-27T21:53:25.937Z,99.90
2018-05-27T21:56:00.310Z,99.90
2018-05-27T21:58:34.763Z,99.90
2018-05-27T22:01:08.334Z,99.90
2018-05-27T22:03:41.933Z,99.90
2018-05-27T22:06:16.250Z,99.90
2018-05-27T22:08:49.982Z,99.90
2018-05-27T22:11:23.578Z,99.90
2018-05-27T22:13:57.090Z,99.90
2018-05-27T22:16:30.722Z,99.90
2018-05-27T22:19:05.057Z,99.90
2018-05-27T22:21:38.781Z,99.90
2018-05-27T22:24:12.333Z,99.90
2018-05-27T22:26:45.896Z,99.90
2018-05-27T22:29:19.519Z,99.90
2018-05-27T22:31:53.173Z,99.90
2018-05-27T22:34:26.779Z,99.90
2018-05-27T22:37:00.297Z,99.90
2018-05-27T22:39:33.828Z,99.90
2018-05-27T22:42:07.565Z,99.90
2018-05-27T22:44:41.125Z,99.90
2018-05-27T22:47:14.605Z,99.90
2018-05-27T22:49:48.222Z,99.90
2018-05-27T22:52:21.775Z,99.90
2018-05-27T22:54:55.306Z,99.90
2018-05-27T22:57:28.858Z,99.90
2018-05-27T23:00:02.485Z,99.90
2018-05-27T23:02:36.170Z,99.90
2018-05-27T23:05:09.764Z,99.90
2018-05-27T23:07:43.377Z,99.90
2018-05-27T23:10:16.989Z,99.90
2018-05-27T23:12:50.732Z,99.90
2018-05-27T23:15:24.415Z,99.90
2018-05-27T23:17:57.913Z,99.90
2018-05-27T23:20:31.449Z,99.90
2018-05-27T23:23:05.034Z,99.90
2018-05-27T23:25:38.729Z,99.90
2018-05-27T23:28:12.449Z,99.90
2018-05-27T23:30:46.035Z,99.90
2018-05-27T23:33:19.589Z,99.90
2018-05-27T23:35:53.290Z,99.90
2018-05-27T23:38:26.899Z,99.90
2018-05-27T23:41:00.506Z,99.90
2018-05-27T23:43:34.796Z,99.90
2018-05-27T23:46:09.199Z,99.90
2018-05-27T23:48:42.761Z,99.90
2018-05-27T23:51:16.613Z,99.90
2018-05-27T23:53:50.271Z,99.90
2018-05-27T23:56:23.853Z,99.90
2018-05-27T23:58:57.448Z,99.90
